Time;durP1;ratioP1;P1;durP2;ratioP2;P2;SDS_P1;SDS_P2;PMS_P1;PMS_P2;Temp;Humidity;BMP_temperature;BMP_pressure;BME280_temperature;BME280_humidity;BME280_pressure;Samples;Min_cycle;Max_cycle;Signal;HPM_P1;HPM_P2
2022/04/30 00:02:07;;;;;;;9.30;5.30;;;;;;;9.33;63.24;102853.53;5043050;28;20175;-74
2022/04/30 00:04:43;;;;;;;11.05;5.45;;;;;;;9.32;62.93;102846.53;5057574;28;20033;-74
2022/04/30 00:07:09;;;;;;;11.13;5.35;;;;;;;9.23;62.93;102847.75;5042223;28;20079;-74
2022/04/30 00:09:36;;;;;;;10.93;5.07;;;;;;;9.18;63.18;102849.19;5043097;28;20036;-74
2022/04/30 00:12:02;;;;;;;10.55;5.10;;;;;;;9.15;63.54;102843.81;5042351;28;20036;-73
2022/04/30 00:14:28;;;;;;;10.85;5.50;;;;;;;9.12;63.30;102842.69;5040264;28;20042;-74
2022/04/30 00:16:54;;;;;;;9.93;5.15;;;;;;;9.11;63.39;102840.88;5042963;28;20108;-74
2022/04/30 00:19:21;;;;;;;11.65;5.63;;;;;;;9.10;63.59;102845.19;5042063;28;20061;-74
2022/04/30 00:21:47;;;;;;;10.90;5.10;;;;;;;9.09;64.00;102847.72;5033199;28;20018;-74
2022/04/30 00:24:12;;;;;;;12.63;5.28;;;;;;;9.05;63.86;102841.41;5041084;28;20198;-74
2022/04/30 00:26:38;;;;;;;8.30;4.82;;;;;;;9.02;64.02;102847.34;5042123;28;20099;-74
2022/04/30 00:29:03;;;;;;;8.63;4.75;;;;;;;9.02;64.01;102841.22;5037868;28;20049;-74
2022/04/30 00:31:29;;;;;;;11.95;5.00;;;;;;;8.97;63.89;102840.94;5041326;28;20044;-73
2022/04/30 00:33:56;;;;;;;11.00;5.07;;;;;;;8.93;64.10;102841.53;5039837;28;20025;-74
2022/04/30 00:36:22;;;;;;;11.35;4.82;;;;;;;8.92;63.95;102841.44;5035082;28;20034;-74
2022/04/30 00:38:47;;;;;;;8.88;4.75;;;;;;;8.92;64.80;102844.06;5024658;28;20028;-74
2022/04/30 00:41:12;;;;;;;9.57;4.38;;;;;;;8.87;64.43;102843.78;5042497;28;20098;-74
2022/04/30 00:43:45;;;;;;;8.68;4.43;;;;;;;8.83;64.16;102831.38;5041885;28;20033;-74
2022/04/30 00:46:15;;;;;;;10.40;4.45;;;;;;;8.75;64.33;102836.09;5042613;28;20176;-74
2022/04/30 00:48:41;;;;;;;;;;;;;;;8.91;63.24;102829.25;5040232;28;20036;-74
2022/04/30 00:51:09;;;;;;;10.02;4.57;;;;;;;8.76;64.77;102830.13;5041617;28;19923;-74
2022/04/30 00:53:40;;;;;;;8.13;4.18;;;;;;;8.74;64.74;102830.81;5039506;28;20029;-74
2022/04/30 00:56:12;;;;;;;9.23;4.18;;;;;;;8.66;64.85;102826.03;5057229;28;20147;-74
2022/04/30 00:58:40;;;;;;;9.52;4.28;;;;;;;8.62;65.25;102823.13;5030428;28;20034;-74
2022/04/30 01:01:05;;;;;;;9.95;4.55;;;;;;;8.56;65.83;102822.72;5044266;28;20041;-74
2022/04/30 01:03:31;;;;;;;8.50;4.40;;;;;;;8.52;65.05;102822.53;5045514;28;20036;-74
2022/04/30 01:05:58;;;;;;;10.15;4.30;;;;;;;8.45;65.58;102822.94;5046275;28;20268;-74
2022/04/30 01:08:27;;;;;;;7.78;4.18;;;;;;;8.46;65.70;102822.16;5044522;28;20048;-74
2022/04/30 01:11:03;;;;;;;11.60;4.88;;;;;;;8.42;65.43;102822.72;5046549;28;20231;-74
2022/04/30 01:13:33;;;;;;;13.10;4.65;;;;;;;8.38;65.71;102818.13;5061094;28;20036;-74
2022/04/30 01:15:59;;;;;;;9.40;4.45;;;;;;;8.36;65.85;102822.31;5043926;28;20021;-74
2022/04/30 01:18:25;;;;;;;9.93;4.60;;;;;;;8.29;66.35;102820.13;5045915;28;20049;-74
2022/04/30 01:20:54;;;;;;;10.82;4.18;;;;;;;8.28;66.32;102820.91;5045587;28;20292;-74
2022/04/30 01:23:21;;;;;;;11.55;5.53;;;;;;;8.24;66.37;102821.53;5045525;28;20033;-74
2022/04/30 01:25:48;;;;;;;10.90;4.50;;;;;;;8.21;66.63;102821.31;5045421;28;20032;-74
2022/04/30 01:28:14;;;;;;;9.63;4.60;;;;;;;8.13;66.79;102819.13;5046013;28;20056;-74
2022/04/30 01:30:39;;;;;;;9.25;4.97;;;;;;;8.09;66.77;102811.03;5044521;28;20179;-74
2022/04/30 01:38:32;;;;;;;12.13;4.80;;;;;;;8.04;67.19;102812.41;5044925;28;20079;-74
2022/04/30 01:40:58;;;;;;;12.65;4.70;;;;;;;7.98;67.56;102811.25;5045821;28;20583;-74
2022/04/30 01:43:25;;;;;;;11.82;5.15;;;;;;;7.90;67.20;102806.34;5045060;28;20048;-74
2022/04/30 01:45:51;;;;;;;12.55;5.13;;;;;;;7.84;67.47;102812.91;5044636;28;20351;-74
2022/04/30 01:48:16;;;;;;;8.75;4.75;;;;;;;7.81;67.97;102807.53;5045595;28;20021;-74
2022/04/30 01:50:42;;;;;;;11.23;5.07;;;;;;;7.81;67.89;102812.72;5045022;28;20029;-74
2022/04/30 01:53:09;;;;;;;11.40;5.32;;;;;;;7.76;68.13;102808.94;5044882;28;20041;-74
2022/04/30 01:55:34;;;;;;;11.25;4.80;;;;;;;7.71;68.21;102809.41;5043694;28;20168;-74
2022/04/30 01:58:00;;;;;;;11.40;5.13;;;;;;;7.69;68.33;102810.97;5061044;28;20328;-74
2022/04/30 02:00:26;;;;;;;10.80;4.82;;;;;;;7.68;68.26;102802.31;5044593;28;20043;-74
2022/04/30 02:02:54;;;;;;;9.57;5.38;;;;;;;7.64;67.84;102805.50;5044073;28;20025;-74
2022/04/30 02:05:20;;;;;;;8.88;5.03;;;;;;;7.58;68.21;102803.38;5045265;28;20072;-74
2022/04/30 02:07:53;;;;;;;12.77;5.07;;;;;;;7.52;68.38;102792.59;5044019;28;20183;-74
2022/04/30 02:10:21;;;;;;;13.82;5.05;;;;;;;7.47;68.38;102794.88;5045080;28;20030;-74
2022/04/30 02:12:47;;;;;;;11.85;5.60;;;;;;;7.46;68.78;102792.19;5043844;28;20025;-74
2022/04/30 02:15:17;;;;;;;11.50;5.45;;;;;;;7.44;68.62;102792.09;5060703;28;20040;-74
2022/04/30 02:17:46;;;;;;;14.07;5.38;;;;;;;7.41;69.25;102789.25;5044397;28;20029;-74
2022/04/30 02:20:24;;;;;;;11.27;5.60;;;;;;;7.38;69.09;102789.06;5044856;28;20025;-74
2022/04/30 02:22:58;;;;;;;11.57;5.25;;;;;;;7.34;68.38;102787.03;5043104;28;20029;-74
2022/04/30 02:25:24;;;;;;;12.00;5.55;;;;;;;7.23;68.75;102793.22;5044878;28;20029;-74
2022/04/30 02:27:54;;;;;;;11.90;5.78;;;;;;;7.15;68.68;102787.47;5043796;28;20021;-74
2022/04/30 02:30:22;;;;;;;10.82;6.00;;;;;;;7.12;69.16;102788.16;5045390;28;20025;-74
2022/04/30 02:32:51;;;;;;;11.13;5.90;;;;;;;7.11;69.07;102783.78;5042861;28;20040;-74
2022/04/30 02:35:19;;;;;;;10.98;5.93;;;;;;;7.09;69.36;102779.28;5044141;28;20033;-74
2022/04/30 02:37:45;;;;;;;12.32;6.25;;;;;;;7.07;69.60;102781.78;5033717;28;20037;-74
2022/04/30 02:40:15;;;;;;;13.73;6.45;;;;;;;7.07;70.29;102776.59;5043188;28;20048;-74
2022/04/30 02:42:41;;;;;;;11.68;5.90;;;;;;;7.08;69.97;102778.41;5058775;28;20075;-74
2022/04/30 02:45:10;;;;;;;11.80;5.85;;;;;;;7.04;70.13;102776.38;5044755;28;20327;-74
2022/04/30 02:47:38;;;;;;;12.90;5.95;;;;;;;7.03;69.66;102782.34;5043874;28;20268;-74
2022/04/30 02:50:04;;;;;;;14.00;5.50;;;;;;;7.00;69.00;102778.66;5043916;28;20092;-74
2022/04/30 02:52:29;;;;;;;14.05;6.65;;;;;;;6.98;70.13;102775.97;5043845;28;20113;-74
2022/04/30 02:54:54;;;;;;;13.68;6.63;;;;;;;7.01;70.00;102778.78;5059972;28;20089;-74
2022/04/30 02:57:19;;;;;;;13.00;6.43;;;;;;;7.03;70.22;102778.88;5043795;28;20022;-74
2022/04/30 02:59:54;;;;;;;16.27;6.38;;;;;;;6.99;70.09;102767.38;5043902;28;20026;-75
2022/04/30 03:02:22;;;;;;;12.02;6.07;;;;;;;6.95;68.99;102767.97;5042813;28;20239;-74
2022/04/30 03:04:51;;;;;;;12.77;6.40;;;;;;;6.93;69.59;102767.84;5043095;28;20047;-74
2022/04/30 03:07:20;;;;;;;13.17;6.53;;;;;;;6.89;69.58;102770.13;5036025;28;20029;-74
2022/04/30 03:09:47;;;;;;;14.93;5.80;;;;;;;6.86;69.38;102775.09;5059740;28;20090;-74
2022/04/30 03:12:13;;;;;;;13.35;6.78;;;;;;;6.83;69.81;102774.91;5042611;28;20048;-75
2022/04/30 03:14:39;;;;;;;12.63;6.20;;;;;;;6.78;69.83;102772.88;5044575;28;20035;-75
2022/04/30 03:22:33;;;;;;;11.95;6.43;;;;;;;6.64;69.57;102773.59;5043050;28;20287;-75
2022/04/30 03:24:59;;;;;;;15.10;6.97;;;;;;;6.58;69.86;102775.75;5044277;28;20017;-74
2022/04/30 03:27:24;;;;;;;14.23;7.20;;;;;;;6.52;70.22;102776.22;5042882;28;20079;-74
2022/04/30 03:29:49;;;;;;;13.60;6.90;;;;;;;6.49;71.25;102767.31;5043156;28;20063;-74
2022/04/30 03:32:15;;;;;;;13.55;6.65;;;;;;;6.44;70.96;102765.31;5043011;28;20041;-74
2022/04/30 03:34:40;;;;;;;12.10;6.30;;;;;;;6.43;71.21;102762.59;5043075;28;20084;-75
2022/04/30 03:37:05;;;;;;;14.48;6.82;;;;;;;6.43;71.23;102758.34;5032343;28;20173;-74
2022/04/30 03:39:30;;;;;;;16.00;7.05;;;;;;;6.42;71.42;102755.63;5058515;28;20041;-74
2022/04/30 03:41:56;;;;;;;13.88;6.95;;;;;;;6.41;71.14;102761.59;5041983;28;20033;-74
2022/04/30 03:44:23;;;;;;;13.23;6.93;;;;;;;6.38;71.68;102753.63;5043307;28;20101;-74
2022/04/30 03:46:48;;;;;;;12.68;7.07;;;;;;;6.35;71.58;102751.69;5042789;28;20161;-75
2022/04/30 03:49:13;;;;;;;13.18;6.80;;;;;;;6.30;71.35;102754.75;5041924;28;20418;-74
2022/04/30 03:51:39;;;;;;;15.10;7.05;;;;;;;6.24;71.29;102750.03;5042736;28;20040;-74
2022/04/30 03:54:04;;;;;;;13.07;6.43;;;;;;;6.23;70.79;102750.84;5058873;28;20111;-74
2022/04/30 03:56:31;;;;;;;15.55;6.90;;;;;;;6.16;70.54;102751.19;5042579;28;20184;-74
2022/04/30 03:58:56;;;;;;;13.35;6.15;;;;;;;6.11;70.94;102750.81;5058672;28;20294;-74
2022/04/30 04:01:22;;;;;;;13.88;6.55;;;;;;;6.15;70.61;102749.38;5041513;28;20037;-74
2022/04/30 04:03:50;;;;;;;15.75;7.03;;;;;;;6.10;70.54;102751.63;5038343;28;20049;-74
2022/04/30 04:06:16;;;;;;;15.43;6.28;;;;;;;6.00;70.16;102755.22;5042901;28;20048;-74
2022/04/30 04:08:42;;;;;;;13.13;6.75;;;;;;;5.93;70.86;102755.53;5042311;28;20034;-74
2022/04/30 04:11:10;;;;;;;14.85;6.78;;;;;;;5.90;71.32;102757.91;5058504;28;20049;-75
2022/04/30 04:19:05;;;;;;;13.35;6.32;;;;;;;5.84;71.45;102757.47;5041249;28;20083;-75
2022/04/30 04:21:30;;;;;;;13.07;6.57;;;;;;;5.85;71.77;102759.22;5042900;28;20017;-74
2022/04/30 04:26:39;;;;;;;14.27;7.00;;;;;;;5.81;71.79;102764.97;5042295;28;20091;-74
2022/04/30 04:29:04;;;;;;;12.80;6.60;;;;;;;5.81;72.35;102760.72;5039917;28;20025;-75
2022/04/30 04:31:30;;;;;;;13.98;6.68;;;;;;;5.78;72.68;102760.50;5058355;28;20044;-74
2022/04/30 04:33:55;;;;;;;15.18;7.47;;;;;;;5.79;73.05;102769.13;5041164;28;20056;-74
2022/04/30 04:36:20;;;;;;;14.65;7.13;;;;;;;5.80;72.59;102765.78;5042777;28;20029;-74
2022/04/30 04:38:46;;;;;;;15.02;7.60;;;;;;;5.82;72.84;102761.59;5041204;28;20092;-74
2022/04/30 04:41:12;;;;;;;15.60;7.65;;;;;;;5.86;73.24;102768.81;5040425;28;20032;-75
2022/04/30 04:43:37;;;;;;;18.50;7.68;;;;;;;5.90;73.29;102768.25;5041308;28;20039;-74
2022/04/30 04:46:03;;;;;;;16.67;7.18;;;;;;;5.91;73.26;102765.78;5058072;28;20056;-74
2022/04/30 04:48:29;;;;;;;16.45;7.85;;;;;;;5.90;73.91;102770.84;5041457;28;20294;-74
2022/04/30 04:50:54;;;;;;;17.13;7.90;;;;;;;5.93;73.56;102769.34;5040662;28;20030;-74
2022/04/30 04:53:20;;;;;;;15.15;7.22;;;;;;;5.96;73.96;102772.97;5042451;28;20025;-75
2022/04/30 04:55:45;;;;;;;15.18;7.60;;;;;;;5.93;73.55;102784.00;5041835;28;20180;-74
2022/04/30 04:58:11;;;;;;;15.20;7.45;;;;;;;5.90;73.63;102783.78;5042267;28;20268;-74
2022/04/30 05:00:36;;;;;;;14.88;7.80;;;;;;;5.87;73.63;102791.31;5055880;28;20041;-74
2022/04/30 05:03:02;;;;;;;13.60;7.72;;;;;;;5.87;73.80;102791.31;5039923;28;20280;-74
2022/04/30 05:05:27;;;;;;;14.43;7.47;;;;;;;5.90;73.95;102799.28;5039349;28;20033;-74
2022/04/30 05:07:52;;;;;;;18.48;8.02;;;;;;;5.89;74.17;102794.91;5042330;28;20288;-74
2022/04/30 05:10:17;;;;;;;16.02;8.00;;;;;;;5.87;74.68;102810.31;5034466;28;20029;-74
2022/04/30 05:12:45;;;;;;;14.77;7.47;;;;;;;5.85;74.88;102804.13;5032719;28;20272;-74
2022/04/30 05:15:11;;;;;;;13.30;7.10;;;;;;;5.86;74.62;102808.50;5042105;28;20288;-74
2022/04/30 05:17:36;;;;;;;16.55;7.75;;;;;;;5.87;74.64;102799.06;5041313;28;20048;-74
2022/04/30 05:20:02;;;;;;;15.15;7.47;;;;;;;5.88;74.77;102806.03;5040767;28;20076;-75
2022/04/30 05:22:28;;;;;;;16.23;7.80;;;;;;;5.95;75.55;102805.69;5042114;28;20100;-74
2022/04/30 05:24:53;;;;;;;14.75;7.68;;;;;;;5.99;75.56;102800.00;5041899;28;20323;-74
2022/04/30 05:27:18;;;;;;;17.92;8.80;;;;;;;6.05;76.56;102797.88;5040539;28;20052;-74
2022/04/30 05:29:43;;;;;;;16.10;8.50;;;;;;;6.07;76.17;102793.72;5041952;28;20037;-74
2022/04/30 05:32:09;;;;;;;15.45;8.15;;;;;;;6.14;76.09;102795.06;5041285;28;20029;-74
2022/04/30 05:34:34;;;;;;;17.90;8.60;;;;;;;6.16;75.91;102796.06;5041963;28;20052;-74
2022/04/30 05:36:59;;;;;;;17.67;8.90;;;;;;;6.22;76.81;102799.09;5039609;28;20021;-74
2022/04/30 05:39:26;;;;;;;17.55;8.52;;;;;;;6.24;76.48;102799.19;5036641;28;20041;-74
2022/04/30 05:41:51;;;;;;;17.95;8.88;;;;;;;6.29;77.32;102800.44;5032548;28;20093;-74
2022/04/30 05:44:16;;;;;;;17.77;8.88;;;;;;;6.36;76.63;102799.22;5032401;28;20042;-74
2022/04/30 05:46:42;;;;;;;16.83;8.90;;;;;;;6.40;77.16;102796.03;5041990;28;20215;-73
2022/04/30 05:49:07;;;;;;;16.25;8.65;;;;;;;6.46;76.90;102798.16;5045499;28;20088;-74
2022/04/30 05:51:33;;;;;;;17.15;8.50;;;;;;;6.51;77.13;102796.81;5044882;28;20094;-75
2022/04/30 05:53:58;;;;;;;19.08;9.07;;;;;;;6.56;77.37;102798.03;5036217;28;20034;-74
2022/04/30 05:56:24;;;;;;;18.00;8.88;;;;;;;6.60;77.66;102803.56;5042759;28;20026;-74
2022/04/30 05:58:49;;;;;;;18.75;9.15;;;;;;;6.65;78.11;102801.31;5037534;28;20036;-74
2022/04/30 06:01:14;;;;;;;18.02;9.05;;;;;;;6.73;77.78;102797.53;5041764;28;20050;-74
2022/04/30 06:03:40;;;;;;;19.05;9.45;;;;;;;6.77;77.92;102809.94;5037218;28;20084;-74
2022/04/30 06:06:05;;;;;;;19.83;8.63;;;;;;;6.85;77.50;102810.50;5031813;28;20057;-74
2022/04/30 06:08:31;;;;;;;19.33;10.07;;;;;;;6.93;77.40;102804.13;5042126;28;20036;-73
2022/04/30 06:10:56;;;;;;;21.52;9.57;;;;;;;6.99;77.84;102800.19;5037048;28;20029;-73
2022/04/30 06:13:22;;;;;;;18.80;9.68;;;;;;;7.09;78.37;102803.50;5044447;28;20033;-73
2022/04/30 06:15:47;;;;;;;22.52;10.02;;;;;;;7.40;77.98;102808.22;5032324;28;20030;-73
2022/04/30 06:18:15;;;;;;;20.70;10.45;;;;;;;7.90;76.60;102806.34;5038130;28;20108;-73
2022/04/30 06:20:40;;;;;;;19.08;9.70;;;;;;;8.48;74.48;102804.94;5051881;28;20045;-73
2022/04/30 06:23:06;;;;;;;20.38;9.73;;;;;;;8.94;72.74;102808.66;5044422;28;20048;-73
2022/04/30 06:25:31;;;;;;;19.08;9.10;;;;;;;9.39;70.97;102810.56;5043616;28;20298;-74
2022/04/30 06:27:57;;;;;;;17.95;9.10;;;;;;;9.79;68.84;102811.13;5058629;28;20043;-73
2022/04/30 06:30:23;;;;;;;15.95;7.95;;;;;;;10.04;67.02;102811.75;5035840;28;20029;-73
2022/04/30 06:32:48;;;;;;;21.30;9.27;;;;;;;10.07;67.94;102811.91;5037540;28;20026;-73
2022/04/30 06:35:13;;;;;;;17.55;9.25;;;;;;;10.10;66.40;102811.19;5044081;28;20025;-73
2022/04/30 06:37:39;;;;;;;20.17;9.77;;;;;;;10.01;67.71;102815.91;5040728;28;20109;-73
2022/04/30 06:40:05;;;;;;;23.45;10.10;;;;;;;9.89;68.24;102811.75;5044170;28;20112;-73
2022/04/30 06:42:41;;;;;;;18.77;10.23;;;;;;;9.86;67.64;102810.69;5044846;28;20029;-73
2022/04/30 06:45:08;;;;;;;20.50;10.38;;;;;;;9.81;67.17;102805.19;5043573;28;20052;-73
2022/04/30 06:47:34;;;;;;;22.33;10.15;;;;;;;9.81;67.36;102801.72;5044389;28;20024;-73
2022/04/30 06:49:59;;;;;;;23.73;10.38;;;;;;;9.77;68.70;102805.81;5043823;28;20025;-73
2022/04/30 06:52:25;;;;;;;22.60;11.02;;;;;;;9.78;67.44;102799.81;5042497;28;20250;-73
2022/04/30 06:57:34;;;;;;;20.73;10.75;;;;;;;9.84;69.29;102801.88;5033545;28;20229;-73
2022/04/30 06:59:59;;;;;;;21.08;10.73;;;;;;;9.86;68.18;102805.47;5044363;28;20056;-73
2022/04/30 07:02:31;;;;;;;22.90;11.00;;;;;;;9.80;68.76;102806.00;5043575;28;20033;-73
2022/04/30 07:04:56;;;;;;;23.02;10.30;;;;;;;9.84;66.34;102809.69;5042563;28;20109;-73
2022/04/30 07:07:22;;;;;;;24.35;10.52;;;;;;;9.88;68.03;102814.28;5043503;28;20045;-73
2022/04/30 07:09:48;;;;;;;23.23;10.75;;;;;;;9.89;68.86;102805.63;5042234;28;20052;-73
2022/04/30 07:12:14;;;;;;;23.33;10.15;;;;;;;9.94;67.63;102811.13;5059537;28;20072;-73
2022/04/30 07:14:41;;;;;;;25.08;11.27;;;;;;;9.96;67.79;102804.31;5042501;28;20260;-73
2022/04/30 07:17:09;;;;;;;29.15;11.38;;;;;;;9.99;67.10;102807.06;5043871;28;20093;-73
2022/04/30 07:19:38;;;;;;;27.02;10.73;;;;;;;10.02;65.93;102808.16;5043411;28;20021;-73
2022/04/30 07:22:04;;;;;;;24.60;10.77;;;;;;;10.05;67.59;102812.63;5043898;28;20052;-73
2022/04/30 07:24:31;;;;;;;24.70;11.15;;;;;;;10.07;68.45;102809.31;5040488;28;20021;-73
2022/04/30 07:26:56;;;;;;;25.75;11.50;;;;;;;10.11;67.94;102813.00;5036549;28;20068;-73
2022/04/30 07:29:22;;;;;;;23.17;11.25;;;;;;;10.14;67.49;102813.19;5043268;28;20037;-73
2022/04/30 07:31:47;;;;;;;22.73;10.90;;;;;;;10.19;67.22;102814.31;5058685;28;20029;-73
2022/04/30 07:34:12;;;;;;;21.73;10.75;;;;;;;10.23;67.60;102812.81;5042561;28;20049;-73
2022/04/30 07:36:38;;;;;;;22.33;10.65;;;;;;;10.30;67.85;102803.59;5042969;28;20025;-73
2022/04/30 07:39:04;;;;;;;22.27;11.07;;;;;;;10.36;67.11;102799.69;5042287;28;20143;-73
2022/04/30 07:41:29;;;;;;;27.65;11.40;;;;;;;10.40;67.13;102795.56;5043014;28;20045;-73
2022/04/30 07:43:55;;;;;;;25.38;10.70;;;;;;;10.44;66.83;102795.81;5043192;28;20025;-73
2022/04/30 07:46:22;;;;;;;27.25;11.20;;;;;;;10.50;65.63;102796.94;5043718;28;20290;-73
2022/04/30 07:48:48;;;;;;;22.90;10.40;;;;;;;10.56;66.29;102797.31;5042796;28;20083;-73
2022/04/30 07:51:16;;;;;;;23.23;11.35;;;;;;;10.60;65.36;102794.94;5042880;28;20041;-74
2022/04/30 07:53:42;;;;;;;27.23;11.30;;;;;;;10.67;66.70;102796.16;5057021;28;20045;-73
2022/04/30 07:56:08;;;;;;;23.98;11.80;;;;;;;10.73;66.14;102795.59;5058001;28;20172;-73
2022/04/30 07:58:33;;;;;;;25.40;11.05;;;;;;;10.78;66.37;102800.25;5043152;28;20240;-73
2022/04/30 08:00:59;;;;;;;22.40;10.95;;;;;;;10.81;65.72;102796.91;5042374;28;20045;-73
2022/04/30 08:03:24;;;;;;;24.95;11.15;;;;;;;10.84;66.44;102790.97;5043223;28;20092;-73
2022/04/30 08:05:49;;;;;;;25.00;10.68;;;;;;;10.85;66.25;102788.44;5040851;28;20024;-73
2022/04/30 08:08:15;;;;;;;25.92;10.85;;;;;;;10.85;64.36;102790.13;5041665;28;20131;-73
2022/04/30 08:10:40;;;;;;;24.17;11.20;;;;;;;10.88;63.33;102792.94;5041273;28;20602;-74
2022/04/30 08:13:06;;;;;;;28.42;11.90;;;;;;;10.88;64.88;102786.00;5033807;28;20031;-74
2022/04/30 08:15:32;;;;;;;24.48;11.23;;;;;;;10.91;65.62;102788.78;5034060;28;20049;-74
2022/04/30 08:17:57;;;;;;;25.45;11.75;;;;;;;10.90;64.16;102786.97;5033916;28;20041;-74
2022/04/30 08:20:23;;;;;;;24.85;11.52;;;;;;;10.93;63.65;102781.94;5032425;28;20037;-74
2022/04/30 08:22:49;;;;;;;25.85;12.18;;;;;;;10.98;65.58;102792.63;5037969;28;20037;-75
2022/04/30 08:25:14;;;;;;;26.63;12.00;;;;;;;11.00;63.75;102785.75;5031044;28;20033;-72
2022/04/30 08:27:40;;;;;;;26.42;12.02;;;;;;;11.07;65.28;102779.16;5039722;28;20029;-75
2022/04/30 08:30:07;;;;;;;23.40;11.52;;;;;;;11.14;66.64;102774.34;5038882;28;20044;-74
2022/04/30 08:32:33;;;;;;;24.63;10.80;;;;;;;11.16;64.33;102783.97;5039501;28;20052;-74
2022/04/30 08:35:00;;;;;;;23.55;10.60;;;;;;;11.17;64.95;102777.94;5039771;28;20276;-74
2022/04/30 08:37:26;;;;;;;24.08;11.38;;;;;;;11.24;65.72;102775.72;5034646;28;20025;-74
2022/04/30 08:39:52;;;;;;;25.52;11.07;;;;;;;11.30;63.83;102769.94;5039624;28;20041;-73
2022/04/30 08:42:18;;;;;;;24.67;11.52;;;;;;;11.33;64.51;102775.28;5041013;28;20037;-74
2022/04/30 08:44:43;;;;;;;24.38;11.23;;;;;;;11.33;63.82;102771.81;5032655;28;20039;-73
2022/04/30 08:47:11;;;;;;;24.42;11.10;;;;;;;11.34;64.11;102768.34;5040593;28;20040;-74
2022/04/30 08:49:40;;;;;;;18.58;10.20;;;;;;;11.38;63.45;102768.59;5042785;28;20025;-74
2022/04/30 08:52:06;;;;;;;21.42;10.57;;;;;;;11.51;65.23;102764.88;5035342;28;20056;-74
2022/04/30 08:54:31;;;;;;;20.55;10.85;;;;;;;11.60;63.59;102760.16;5041810;28;20030;-74
2022/04/30 08:56:57;;;;;;;26.67;11.25;;;;;;;11.62;63.15;102768.94;5040558;28;20039;-74
2022/04/30 08:59:23;;;;;;;29.92;11.52;;;;;;;11.60;62.35;102765.38;5042574;28;20053;-74
2022/04/30 09:01:55;;;;;;;31.23;11.88;;;;;;;11.57;63.40;102767.84;5042055;28;20033;-74
2022/04/30 09:04:21;;;;;;;26.83;11.95;;;;;;;11.52;62.98;102764.06;5057964;28;20063;-74
2022/04/30 09:06:48;;;;;;;26.45;11.43;;;;;;;11.46;62.72;102767.28;5041563;28;20286;-73
2022/04/30 09:09:22;;;;;;;25.48;10.93;;;;;;;11.42;62.56;102773.16;5040725;28;20037;-73
2022/04/30 09:11:48;;;;;;;24.63;12.02;;;;;;;11.38;62.09;102772.91;5039250;28;20037;-74
2022/04/30 09:14:13;;;;;;;25.23;11.55;;;;;;;11.34;63.00;102771.88;5042158;28;20025;-74
2022/04/30 09:16:38;;;;;;;25.88;11.43;;;;;;;11.31;63.18;102771.69;5035195;28;20109;-73
2022/04/30 09:19:05;;;;;;;26.50;12.25;;;;;;;11.28;63.92;102769.84;5033697;28;20033;-74
2022/04/30 09:21:30;;;;;;;26.65;12.10;;;;;;;11.27;63.45;102768.03;5044200;28;20157;-73
2022/04/30 09:24:05;;;;;;;33.72;13.48;;;;;;;11.28;64.11;102767.25;5045452;28;20279;-74
2022/04/30 09:26:40;;;;;;;28.27;12.88;;;;;;;11.28;63.94;102762.03;5046032;28;20022;-74
2022/04/30 09:29:38;;;;;;;29.65;13.40;;;;;;;11.32;64.04;102757.84;5045402;28;20060;-74
2022/04/30 09:32:04;;;;;;;31.75;12.10;;;;;;;11.30;63.63;102755.16;5032539;28;20033;-73
2022/04/30 09:40:18;;;;;;;28.23;11.90;;;;;;;11.34;62.49;102750.09;5044795;28;20033;-74
2022/04/30 09:42:48;;;;;;;30.48;12.02;;;;;;;11.35;62.40;102749.28;5044761;28;20073;-74
2022/04/30 09:45:29;;;;;;;26.02;11.85;;;;;;;11.35;62.18;102742.34;5045075;28;20045;-74
2022/04/30 09:47:55;;;;;;;29.58;13.10;;;;;;;11.34;61.50;102739.66;5041982;28;20021;-74
2022/04/30 09:55:55;;;;;;;25.98;11.65;;;;;;;11.47;62.86;102735.13;5033608;28;20036;-74
2022/04/30 09:58:26;;;;;;;24.45;11.65;;;;;;;11.51;63.45;102733.56;5035606;28;20033;-73
2022/04/30 10:00:57;;;;;;;25.48;11.60;;;;;;;11.55;62.19;102734.63;5057627;28;20050;-74
2022/04/30 10:03:29;;;;;;;24.75;11.57;;;;;;;11.57;63.00;102726.06;5045560;28;20097;-74
2022/04/30 10:05:59;;;;;;;23.42;10.98;;;;;;;11.60;61.63;102725.28;5036271;28;20049;-74
2022/04/30 10:08:26;;;;;;;19.30;9.88;;;;;;;11.64;62.01;102733.38;5037324;28;20049;-74
2022/04/30 10:10:57;;;;;;;20.98;10.00;;;;;;;11.68;60.87;102720.47;5038652;28;20355;-74
2022/04/30 10:13:33;;;;;;;19.95;10.60;;;;;;;11.71;60.16;102720.63;5033923;28;20036;-74
2022/04/30 10:16:01;;;;;;;23.05;10.20;;;;;;;11.74;60.51;102718.16;5043624;28;20222;-74
2022/04/30 10:18:34;;;;;;;23.00;9.95;;;;;;;11.79;60.59;102703.63;5041237;28;20273;-74
2022/04/30 10:21:00;;;;;;;21.85;10.15;;;;;;;11.82;60.81;102704.66;5040747;28;20021;-74
2022/04/30 10:23:26;;;;;;;19.52;9.93;;;;;;;11.84;58.80;102700.38;5035477;28;20375;-74
2022/04/30 10:25:51;;;;;;;22.48;9.80;;;;;;;11.90;59.08;102707.63;5034532;28;20025;-74
2022/04/30 10:28:23;;;;;;;22.02;9.90;;;;;;;12.00;60.54;102702.03;5037592;28;20105;-74
2022/04/30 10:31:05;;;;;;;23.88;10.38;;;;;;;12.09;60.47;102703.31;5034841;28;20050;-74
2022/04/30 10:33:32;;;;;;;18.65;9.05;;;;;;;12.12;59.12;102706.97;5029703;28;20068;-74
2022/04/30 10:36:08;;;;;;;24.50;9.65;;;;;;;12.15;58.01;102708.81;5035925;28;20056;-74
2022/04/30 10:38:34;;;;;;;18.17;9.25;;;;;;;12.14;57.11;102704.44;5034652;28;20022;-74
2022/04/30 10:41:02;;;;;;;19.38;10.10;;;;;;;12.14;57.23;102702.72;5032071;28;20022;-74
2022/04/30 10:43:36;;;;;;;21.52;10.35;;;;;;;12.15;58.03;102704.50;5036053;28;20045;-74
2022/04/30 10:46:13;;;;;;;25.10;10.70;;;;;;;12.16;56.20;102700.16;5031629;28;20053;-74
2022/04/30 10:48:38;;;;;;;23.67;10.85;;;;;;;12.19;57.10;102695.06;5033983;28;20468;-74
2022/04/30 10:51:12;;;;;;;23.17;10.63;;;;;;;12.22;57.31;102684.75;5032202;28;20033;-74
2022/04/30 10:53:42;;;;;;;22.45;9.82;;;;;;;12.22;54.92;102684.75;5032240;28;20189;-74
2022/04/30 10:56:07;;;;;;;16.95;8.05;;;;;;;12.27;53.09;102680.66;5033014;28;20017;-74
2022/04/30 10:58:36;;;;;;;15.18;7.93;;;;;;;12.38;54.72;102682.88;5033614;28;20030;-74
2022/04/30 11:01:15;;;;;;;16.98;8.18;;;;;;;12.45;52.76;102677.09;5033403;28;20037;-74
2022/04/30 11:03:50;;;;;;;;;;;;;;;12.53;55.26;102671.38;5036808;28;20302;-74
2022/04/30 11:06:23;;;;;;;20.10;9.02;;;;;;;12.70;56.37;102669.53;5030652;28;19925;-74
2022/04/30 11:09:01;;;;;;;20.55;10.15;;;;;;;12.85;53.77;102668.41;5037862;28;20124;-74
2022/04/30 11:11:28;;;;;;;22.20;10.85;;;;;;;12.86;49.53;102654.47;5036882;28;20045;-74
2022/04/30 11:14:01;;;;;;;22.30;9.88;;;;;;;12.91;52.15;102655.59;5036525;28;20033;-79
2022/04/30 11:16:30;;;;;;;22.60;10.02;;;;;;;12.90;52.20;102656.41;5037032;28;20025;-79
2022/04/30 11:19:06;;;;;;;19.25;10.77;;;;;;;12.89;53.00;102654.63;5039808;28;20253;-79
2022/04/30 11:21:40;;;;;;;23.10;10.30;;;;;;;12.94;51.68;102646.97;5036327;28;20026;-79
2022/04/30 11:24:07;;;;;;;18.92;10.40;;;;;;;13.02;53.74;102643.88;5031391;28;20079;-79
2022/04/30 11:26:37;;;;;;;21.02;10.63;;;;;;;13.09;53.88;102644.13;5040866;28;20084;-82
2022/04/30 11:29:07;;;;;;;20.55;10.65;;;;;;;13.17;55.19;102640.09;5035794;28;20017;-82
2022/04/30 11:31:32;;;;;;;21.50;11.05;;;;;;;13.20;52.99;102629.75;5043735;28;20032;-83
2022/04/30 11:34:07;;;;;;;22.45;10.82;;;;;;;13.24;52.87;102636.91;5043035;28;20025;-82
2022/04/30 11:36:41;;;;;;;20.35;10.70;;;;;;;13.33;52.85;102632.03;5043571;28;20162;-82
2022/04/30 11:39:09;;;;;;;21.58;10.35;;;;;;;13.40;50.20;102630.63;5056619;28;20103;-83
2022/04/30 11:41:42;;;;;;;20.70;9.70;;;;;;;13.47;50.07;102623.88;5034007;28;20171;-83
2022/04/30 11:44:14;;;;;;;20.85;10.25;;;;;;;13.49;47.96;102619.63;5034959;28;20034;-82
2022/04/30 11:46:41;;;;;;;18.33;10.20;;;;;;;13.51;50.11;102629.34;5041116;28;20033;-81
2022/04/30 11:49:11;;;;;;;18.08;9.52;;;;;;;13.47;49.91;102619.56;5041867;28;20080;-80
2022/04/30 11:51:37;;;;;;;19.35;9.68;;;;;;;13.44;48.87;102618.53;5030887;28;20025;-80
2022/04/30 11:54:06;;;;;;;17.45;9.27;;;;;;;13.39;50.38;102620.97;5042176;28;20041;-79